createdAt,value
2022-11-10T00:01:15.160Z,98.50
2022-11-10T00:06:15.033Z,98.81
2022-11-10T00:11:14.985Z,99.11
2022-11-10T00:16:14.897Z,98.61
2022-11-10T00:21:14.821Z,98.71
2022-11-10T00:26:14.766Z,98.91
2022-11-10T00:31:14.680Z,99.16
2022-11-10T00:36:14.631Z,99.22
2022-11-10T00:41:14.592Z,99.02
2022-11-10T00:46:14.525Z,98.81
2022-11-10T00:51:14.426Z,99.16
2022-11-10T00:56:14.372Z,99.16
2022-11-10T01:01:14.451Z,98.86
2022-11-10T01:06:14.274Z,98.90
2022-11-10T01:11:14.160Z,99.72
2022-11-10T01:16:14.131Z,99.99
2022-11-10T01:21:14.049Z,99.99
2022-11-10T01:26:14.062Z,99.99
2022-11-10T01:31:13.943Z,99.99
2022-11-10T01:36:13.852Z,99.99
2022-11-10T01:41:13.782Z,99.99
2022-11-10T01:46:13.748Z,99.99
2022-11-10T01:51:13.651Z,99.99
2022-11-10T01:56:13.614Z,99.99
2022-11-10T02:01:13.586Z,99.99
2022-11-10T02:06:13.468Z,99.99
2022-11-10T02:11:13.447Z,99.99
2022-11-10T02:16:13.332Z,99.99
2022-11-10T02:21:13.285Z,99.99
2022-11-10T02:26:13.203Z,99.99
2022-11-10T02:31:13.141Z,99.99
2022-11-10T02:36:13.112Z,99.99
2022-11-10T02:41:13.015Z,99.99
2022-11-10T02:46:12.937Z,99.99
2022-11-10T02:51:12.859Z,99.99
2022-11-10T02:56:12.783Z,99.99
2022-11-10T03:01:12.767Z,99.99
2022-11-10T03:06:12.650Z,99.99
2022-11-10T03:11:12.590Z,99.99
2022-11-10T03:16:12.522Z,99.99
2022-11-10T03:21:12.449Z,99.99
2022-11-10T03:26:12.371Z,99.99
2022-11-10T03:31:12.319Z,99.99
2022-11-10T03:36:12.250Z,99.99
2022-11-10T03:41:19.354Z,99.99
2022-11-10T03:46:13.140Z,99.99
2022-11-10T03:51:12.388Z,99.99
2022-11-10T03:56:12.024Z,99.99
2022-11-10T04:01:11.891Z,99.99
2022-11-10T04:06:11.864Z,99.99
2022-11-10T04:11:11.767Z,99.99
2022-11-10T04:16:11.739Z,99.99
2022-11-10T04:21:11.947Z,99.99
2022-11-10T04:26:11.568Z,99.99
2022-11-10T04:31:11.508Z,99.99
2022-11-10T04:36:11.441Z,99.99
2022-11-10T04:41:11.424Z,99.99
2022-11-10T04:46:11.388Z,98.42
2022-11-10T04:51:11.280Z,96.01
2022-11-10T04:56:11.277Z,95.40
2022-11-10T05:01:11.377Z,94.84
2022-11-10T05:06:11.032Z,94.23
2022-11-10T05:11:11.043Z,93.82
2022-11-10T05:16:10.954Z,92.85
2022-11-10T05:21:10.841Z,93.30
2022-11-10T05:26:10.848Z,93.16
2022-11-10T05:31:10.778Z,92.10
2022-11-10T05:36:10.663Z,89.45
2022-11-10T05:41:10.628Z,89.15
2022-11-10T05:46:10.569Z,89.11
2022-11-10T05:51:10.455Z,89.20
2022-11-10T05:56:10.457Z,89.56
2022-11-10T06:01:10.429Z,90.92
2022-11-10T06:06:10.258Z,91.69
2022-11-10T06:11:10.175Z,92.03
2022-11-10T06:16:10.124Z,92.14
2022-11-10T06:21:10.085Z,92.14
2022-11-10T06:26:10.003Z,90.56
2022-11-10T06:31:09.912Z,90.05
2022-11-10T06:36:09.867Z,90.91
2022-11-10T06:41:09.771Z,92.30
2022-11-10T06:46:09.794Z,89.45
2022-11-10T06:51:09.661Z,89.04
2022-11-10T06:56:09.596Z,88.33
2022-11-10T07:01:09.648Z,88.33
2022-11-10T07:06:09.449Z,89.00
2022-11-10T07:11:09.386Z,87.63
2022-11-10T07:16:09.432Z,87.90
2022-11-10T07:21:09.638Z,87.38
2022-11-10T07:26:09.217Z,87.35
2022-11-10T07:31:09.214Z,85.71
2022-11-10T07:36:09.065Z,86.02
2022-11-10T07:41:09.087Z,84.34
2022-11-10T07:46:08.962Z,83.25
2022-11-10T07:51:08.862Z,79.71
2022-11-10T07:56:08.803Z,82.18
2022-11-10T08:01:08.762Z,78.64
2022-11-10T08:06:08.650Z,77.06
2022-11-10T08:11:08.688Z,78.30
2022-11-10T08:16:08.552Z,77.19
2022-11-10T08:21:08.490Z,76.17
2022-11-10T08:26:08.485Z,74.62
2022-11-10T08:31:08.355Z,73.06
2022-11-10T08:36:08.293Z,73.50
2022-11-10T08:41:08.220Z,73.12
2022-11-10T08:46:08.127Z,71.50
2022-11-10T08:51:08.084Z,71.09
2022-11-10T08:56:08.004Z,72.25
2022-11-10T09:01:07.959Z,73.60
2022-11-10T09:06:07.922Z,74.31
2022-11-10T09:11:07.856Z,72.75
2022-11-10T09:16:07.774Z,70.62
2022-11-10T09:21:07.785Z,70.12
2022-11-10T09:26:07.634Z,69.61
2022-11-10T09:31:07.565Z,69.27
2022-11-10T09:36:07.628Z,71.84
2022-11-10T09:41:07.427Z,72.65
2022-11-10T09:46:07.551Z,70.45
2022-11-10T09:51:07.499Z,71.91
2022-11-10T09:56:07.304Z,72.48
2022-11-10T10:01:07.169Z,72.38
2022-11-10T10:06:07.097Z,72.01
2022-11-10T10:11:07.026Z,71.26
2022-11-10T10:16:06.954Z,68.94
2022-11-10T10:21:06.910Z,69.61
2022-11-10T10:26:06.951Z,68.30
2022-11-10T10:31:06.922Z,70.42
2022-11-10T10:36:06.892Z,70.42
2022-11-10T10:41:06.684Z,69.92
2022-11-10T10:46:06.568Z,69.10
2022-11-10T10:51:06.508Z,68.53
2022-11-10T10:56:06.508Z,67.42
2022-11-10T11:01:06.478Z,69.41
2022-11-10T11:06:06.314Z,66.88
2022-11-10T11:11:06.299Z,66.58
2022-11-10T11:16:06.173Z,69.04
2022-11-10T11:21:06.160Z,67.89
2022-11-10T11:26:06.089Z,67.59
2022-11-10T11:31:06.033Z,66.58
2022-11-10T11:36:05.955Z,66.75
2022-11-10T11:41:05.905Z,65.30
2022-11-10T11:46:05.775Z,65.91
2022-11-10T11:51:05.746Z,64.90
2022-11-10T11:56:05.665Z,65.78
2022-11-10T12:01:05.596Z,64.73
2022-11-10T12:06:05.567Z,65.47
2022-11-10T12:11:05.476Z,64.79
2022-11-10T12:16:05.450Z,64.84
2022-11-10T12:21:05.481Z,65.44
2022-11-10T12:26:05.298Z,63.93
2022-11-10T12:31:05.359Z,66.32
2022-11-10T12:36:05.127Z,63.16
2022-11-10T12:41:05.068Z,63.49
2022-11-10T12:46:04.971Z,63.90
2022-11-10T12:51:04.969Z,66.45
2022-11-10T12:56:04.881Z,64.53
2022-11-10T13:01:04.968Z,65.17
2022-11-10T13:06:04.875Z,64.97
2022-11-10T13:11:04.801Z,64.53
2022-11-10T13:16:04.780Z,66.82
2022-11-10T13:21:04.718Z,64.90
2022-11-10T13:26:04.519Z,66.52
2022-11-10T13:31:04.436Z,65.23
2022-11-10T13:36:04.322Z,66.17
2022-11-10T13:41:04.274Z,67.72
2022-11-10T13:46:04.200Z,68.16
2022-11-10T13:51:04.154Z,66.44
2022-11-10T13:56:04.082Z,67.79
2022-11-10T14:01:04.022Z,67.08
2022-11-10T14:06:03.967Z,68.50
2022-11-10T14:11:03.899Z,66.98
2022-11-10T14:16:03.820Z,69.58
2022-11-10T14:21:03.770Z,67.93
2022-11-10T14:26:03.707Z,65.88
2022-11-10T14:31:03.626Z,67.83
2022-11-10T14:36:03.539Z,67.35
2022-11-10T14:41:03.498Z,67.49
2022-11-10T14:46:03.442Z,68.73
2022-11-10T14:51:03.353Z,70.79
2022-11-10T14:56:03.330Z,69.78
2022-11-10T15:01:03.226Z,70.45
2022-11-10T15:06:03.158Z,71.80
2022-11-10T15:11:03.132Z,73.19
2022-11-10T15:16:03.028Z,74.68
2022-11-10T15:21:02.966Z,76.38
2022-11-10T15:26:02.879Z,77.87
2022-11-10T15:31:02.863Z,78.80
2022-11-10T15:36:02.772Z,78.93
2022-11-10T15:41:02.681Z,79.64
2022-11-10T15:46:02.621Z,80.91
2022-11-10T15:51:02.668Z,79.81
2022-11-10T15:56:02.519Z,78.49
2022-11-10T16:01:02.455Z,78.69
2022-11-10T16:06:02.393Z,78.63
2022-11-10T16:11:02.304Z,80.43
2022-11-10T16:16:02.239Z,80.54
2022-11-10T16:21:02.294Z,80.74
2022-11-10T16:26:02.124Z,81.90
2022-11-10T16:31:02.051Z,80.57
2022-11-10T16:36:02.026Z,81.32
2022-11-10T16:41:01.897Z,82.28
2022-11-10T16:46:01.848Z,82.28
2022-11-10T16:51:01.778Z,81.87
2022-11-10T16:56:01.715Z,81.77
2022-11-10T17:01:01.667Z,82.79
2022-11-10T17:06:01.651Z,80.10
2022-11-10T17:11:01.524Z,80.65
2022-11-10T17:16:01.762Z,81.60
2022-11-10T17:21:02.232Z,81.71
2022-11-10T17:26:01.661Z,81.74
2022-11-10T17:31:01.259Z,82.36
2022-11-10T17:36:01.200Z,82.20
2022-11-10T17:41:01.114Z,82.60
2022-11-10T17:46:01.065Z,82.15
2022-11-10T17:51:00.999Z,82.29
2022-11-10T17:56:00.928Z,83.05
2022-11-10T18:01:00.912Z,84.31
2022-11-10T18:06:00.793Z,84.22
2022-11-10T18:11:00.744Z,84.72
2022-11-10T18:16:00.679Z,85.07
2022-11-10T18:21:00.586Z,86.20
2022-11-10T18:26:00.539Z,85.28
2022-11-10T18:31:00.472Z,86.20
2022-11-10T18:36:00.420Z,85.07
2022-11-10T18:41:00.327Z,85.17
2022-11-10T18:46:00.285Z,85.28
2022-11-10T18:51:00.240Z,85.69
2022-11-10T18:56:00.180Z,85.72
2022-11-10T19:01:00.115Z,85.72
2022-11-10T19:06:01.144Z,85.63
2022-11-10T19:11:00.114Z,86.04
2022-11-10T19:15:59.945Z,85.93
2022-11-10T19:20:59.843Z,87.06
2022-11-10T19:25:59.762Z,86.04
2022-11-10T19:30:59.697Z,86.24
2022-11-10T19:35:59.636Z,85.93
2022-11-10T19:40:59.584Z,85.58
2022-11-10T19:45:59.591Z,84.36
2022-11-10T19:50:59.504Z,84.28
2022-11-10T19:55:59.407Z,83.15
2022-11-10T20:00:59.328Z,84.63
2022-11-10T20:05:59.277Z,83.70
2022-11-10T20:10:59.283Z,84.66
2022-11-10T20:15:59.219Z,85.42
2022-11-10T20:20:59.067Z,85.58
2022-11-10T20:25:59.025Z,85.38
2022-11-10T20:30:58.923Z,84.87
2022-11-10T20:35:58.926Z,85.63
2022-11-10T20:40:58.880Z,86.99
2022-11-10T20:45:58.718Z,86.90
2022-11-10T20:50:58.699Z,87.76
2022-11-10T20:55:58.652Z,87.14
2022-11-10T21:00:58.562Z,88.66
2022-11-10T21:05:58.512Z,89.58
2022-11-10T21:10:58.356Z,90.34
2022-11-10T21:15:58.667Z,90.55
2022-11-10T21:20:58.331Z,92.23
2022-11-10T21:25:58.162Z,92.13
2022-11-10T21:30:58.177Z,91.86
2022-11-10T21:35:59.041Z,92.93
2022-11-10T21:40:58.027Z,94.11
2022-11-10T21:45:57.935Z,94.73
2022-11-10T21:50:57.859Z,95.34
2022-11-10T21:55:57.796Z,95.86
2022-11-10T22:00:57.744Z,96.27
2022-11-10T22:05:57.684Z,96.06
2022-11-10T22:10:57.643Z,95.65
2022-11-10T22:15:57.535Z,94.93
2022-11-10T22:20:57.473Z,95.96
2022-11-10T22:25:57.412Z,96.52
2022-11-10T22:30:57.394Z,97.24
2022-11-10T22:35:57.260Z,97.44
2022-11-10T22:40:57.212Z,97.19
2022-11-10T22:45:57.142Z,96.89
2022-11-10T22:50:57.097Z,96.47
2022-11-10T22:55:57.096Z,97.34
2022-11-10T23:00:56.969Z,97.80
2022-11-10T23:05:56.932Z,97.60
2022-11-10T23:10:56.838Z,98.00
2022-11-10T23:15:56.747Z,98.36
2022-11-10T23:20:56.739Z,98.57
2022-11-10T23:25:56.670Z,99.13
2022-11-10T23:30:56.629Z,99.13
2022-11-10T23:35:56.568Z,99.23
2022-11-10T23:40:56.432Z,99.95
2022-11-10T23:46:11.610Z,99.95
2022-11-10T23:50:57.336Z,99.99
2022-11-10T23:55:56.234Z,99.99
